createdAt,value
2022-08-03T00:02:20.694Z,15.98
2022-08-03T00:04:49.124Z,15.97
2022-08-03T00:07:19.808Z,15.98
2022-08-03T00:09:48.044Z,15.95
2022-08-03T00:12:16.878Z,15.92
2022-08-03T00:14:45.604Z,15.89
2022-08-03T00:17:13.953Z,15.85
2022-08-03T00:19:42.201Z,15.83
2022-08-03T00:22:10.836Z,15.81
2022-08-03T00:24:39.074Z,15.81
2022-08-03T00:27:07.349Z,15.79
2022-08-03T00:30:00.198Z,15.77
2022-08-03T00:32:24.725Z,15.78
2022-08-03T00:34:58.638Z,15.78
2022-08-03T00:37:41.641Z,15.78
2022-08-03T00:40:15.291Z,15.76
2022-08-03T00:43:07.692Z,15.73
2022-08-03T00:45:41.539Z,15.71
2022-08-03T00:48:29.792Z,15.67
2022-08-03T00:50:59.289Z,15.64
2022-08-03T00:53:28.332Z,15.60
2022-08-03T00:55:56.697Z,15.59
2022-08-03T00:58:25.507Z,15.55
2022-08-03T01:06:05.142Z,15.20
2022-08-03T01:08:53.811Z,15.11
2022-08-03T01:11:25.051Z,15.11
2022-08-03T01:14:18.732Z,15.12
2022-08-03T01:17:02.721Z,15.12
2022-08-03T01:20:09.215Z,15.12
2022-08-03T01:23:09.080Z,15.14
2022-08-03T01:25:54.420Z,15.07
2022-08-03T01:28:51.094Z,15.00
2022-08-03T01:31:26.927Z,14.98
2022-08-03T01:34:02.802Z,14.99
2022-08-03T01:36:38.570Z,15.01
2022-08-03T01:39:12.003Z,15.04
2022-08-03T01:41:49.639Z,15.07
2022-08-03T01:44:28.982Z,15.07
2022-08-03T01:47:00.643Z,15.07
2022-08-03T01:49:37.471Z,15.08
2022-08-03T01:52:07.179Z,15.10
2022-08-03T01:54:38.018Z,15.08
2022-08-03T01:57:07.216Z,15.06
2022-08-03T01:59:37.656Z,15.03
2022-08-03T02:02:28.663Z,15.04
2022-08-03T02:04:58.900Z,15.04
2022-08-03T02:07:31.698Z,15.05
2022-08-03T02:10:03.986Z,15.06
2022-08-03T02:12:34.978Z,15.04
2022-08-03T02:15:04.829Z,15.03
2022-08-03T02:17:39.070Z,15.02
2022-08-03T02:20:14.034Z,15.03
2022-08-03T02:22:44.922Z,15.01
2022-08-03T02:25:15.041Z,15.01
2022-08-03T02:27:49.531Z,14.99
2022-08-03T02:30:19.827Z,14.93
2022-08-03T02:32:56.944Z,14.95
2022-08-03T02:35:27.646Z,14.96
2022-08-03T02:38:01.429Z,14.97
2022-08-03T02:40:31.650Z,14.94
2022-08-03T02:43:04.131Z,14.91
2022-08-03T02:45:36.351Z,14.90
2022-08-03T02:48:07.074Z,14.90
2022-08-03T02:50:35.360Z,14.92
2022-08-03T02:53:04.841Z,14.91
2022-08-03T02:55:36.016Z,14.87
2022-08-03T02:58:13.441Z,14.85
2022-08-03T03:00:44.290Z,14.83
2022-08-03T03:03:13.951Z,14.83
2022-08-03T03:05:55.824Z,14.83
2022-08-03T03:08:28.935Z,14.83
2022-08-03T03:11:00.172Z,14.84
2022-08-03T03:13:30.445Z,14.85
2022-08-03T03:16:03.745Z,14.84
2022-08-03T03:18:34.647Z,14.81
2022-08-03T03:21:05.160Z,14.73
2022-08-03T03:23:36.860Z,14.63
2022-08-03T03:26:06.344Z,14.53
2022-08-03T03:28:37.248Z,14.42
2022-08-03T03:31:07.695Z,14.35
2022-08-03T03:33:37.354Z,14.40
2022-08-03T03:36:07.161Z,14.47
2022-08-03T03:38:35.803Z,14.56
2022-08-03T03:41:06.276Z,14.67
2022-08-03T03:43:34.792Z,14.75
2022-08-03T03:46:03.976Z,14.73
2022-08-03T03:48:33.237Z,14.78
2022-08-03T03:51:01.781Z,14.98
2022-08-03T03:53:30.081Z,15.13
2022-08-03T03:56:02.688Z,15.22
2022-08-03T03:58:33.091Z,15.29
2022-08-03T04:01:01.943Z,15.35
2022-08-03T04:03:30.467Z,15.48
2022-08-03T04:06:18.133Z,15.78
2022-08-03T04:09:05.207Z,16.11
2022-08-03T04:11:59.154Z,16.44
2022-08-03T04:14:33.023Z,17.09
2022-08-03T04:17:07.670Z,17.70
2022-08-03T04:19:45.161Z,18.33
2022-08-03T04:22:18.942Z,19.07
2022-08-03T04:24:51.145Z,19.75
2022-08-03T04:27:26.198Z,20.37
2022-08-03T04:29:57.007Z,20.96
2022-08-03T04:32:29.021Z,21.51
2022-08-03T04:34:58.231Z,22.19
2022-08-03T04:37:43.364Z,22.75
2022-08-03T04:40:18.431Z,23.17
2022-08-03T04:42:54.020Z,23.38
2022-08-03T04:45:23.162Z,23.32
2022-08-03T04:47:52.875Z,22.99
2022-08-03T04:50:22.255Z,22.34
2022-08-03T04:53:07.246Z,21.81
2022-08-03T04:55:36.017Z,21.41
2022-08-03T04:58:04.866Z,21.11
2022-08-03T05:00:33.390Z,20.83
2022-08-03T05:03:01.833Z,20.59
2022-08-03T05:05:36.231Z,20.41
2022-08-03T05:08:20.585Z,20.29
2022-08-03T05:10:59.332Z,20.26
2022-08-03T05:13:30.616Z,20.26
2022-08-03T05:15:58.937Z,20.22
2022-08-03T05:18:27.210Z,20.13
2022-08-03T05:20:56.045Z,20.05
2022-08-03T05:23:24.201Z,20.01
2022-08-03T05:25:52.451Z,20.05
2022-08-03T05:28:21.022Z,20.17
2022-08-03T05:30:49.660Z,20.25
2022-08-03T05:33:17.838Z,20.39
2022-08-03T05:35:57.557Z,20.43
2022-08-03T05:38:34.186Z,20.50
2022-08-03T05:41:22.032Z,20.59
2022-08-03T05:43:54.116Z,20.64
2022-08-03T05:46:23.400Z,20.67
2022-08-03T05:48:52.137Z,20.71
2022-08-03T05:51:20.713Z,20.93
2022-08-03T05:53:49.424Z,21.20
2022-08-03T05:56:17.669Z,21.39
2022-08-03T05:58:47.597Z,21.54
2022-08-03T06:01:17.484Z,21.56
2022-08-03T06:03:46.453Z,21.57
2022-08-03T06:06:15.191Z,21.65
2022-08-03T06:08:44.732Z,21.82
2022-08-03T06:11:13.515Z,21.95
2022-08-03T06:13:41.876Z,21.95
2022-08-03T06:16:10.809Z,21.92
2022-08-03T06:18:40.571Z,21.95
2022-08-03T06:21:15.139Z,22.04
2022-08-03T06:23:54.726Z,22.17
2022-08-03T06:26:25.404Z,22.23
2022-08-03T06:28:55.394Z,22.16
2022-08-03T06:31:33.158Z,22.11
2022-08-03T06:34:33.360Z,22.04
2022-08-03T06:36:58.593Z,21.85
2022-08-03T06:39:30.853Z,21.71
2022-08-03T06:41:59.152Z,21.65
2022-08-03T06:44:27.590Z,21.60
2022-08-03T06:46:56.167Z,21.50
2022-08-03T06:49:24.916Z,21.41
2022-08-03T06:52:03.997Z,21.40
2022-08-03T06:54:36.283Z,21.59
2022-08-03T06:57:05.454Z,21.88
2022-08-03T07:00:10.698Z,22.15
2022-08-03T07:02:22.741Z,22.44
2022-08-03T07:04:54.100Z,22.62
2022-08-03T07:07:24.475Z,22.63
2022-08-03T07:09:56.418Z,22.53
2022-08-03T07:12:27.143Z,22.42
2022-08-03T07:15:00.317Z,22.30
2022-08-03T07:17:32.429Z,22.15
2022-08-03T07:20:03.893Z,22.05
2022-08-03T07:22:32.412Z,22.00
2022-08-03T07:25:01.214Z,22.06
2022-08-03T07:27:30.493Z,22.19
2022-08-03T07:29:59.206Z,22.48
2022-08-03T07:32:31.172Z,22.83
2022-08-03T07:35:01.033Z,23.22
2022-08-03T07:37:30.733Z,23.44
2022-08-03T07:40:00.663Z,23.59
2022-08-03T07:42:29.836Z,23.59
2022-08-03T07:44:59.330Z,23.65
2022-08-03T07:47:34.796Z,23.90
2022-08-03T07:50:06.504Z,24.07
2022-08-03T07:52:51.944Z,24.27
2022-08-03T07:55:23.158Z,24.37
2022-08-03T07:58:24.163Z,24.28
2022-08-03T08:00:53.407Z,24.11
2022-08-03T08:03:26.995Z,24.05
2022-08-03T08:05:55.391Z,23.97
2022-08-03T08:08:23.824Z,23.99
2022-08-03T08:10:57.711Z,24.21
2022-08-03T08:13:27.305Z,24.51
2022-08-03T08:15:55.779Z,24.81
2022-08-03T08:18:29.672Z,25.05
2022-08-03T08:20:58.779Z,25.30
2022-08-03T08:23:42.149Z,25.37
2022-08-03T08:26:12.431Z,25.32
2022-08-03T08:28:41.058Z,25.18
2022-08-03T08:31:09.356Z,25.08
2022-08-03T08:36:26.905Z,25.23
2022-08-03T08:38:55.435Z,25.35
2022-08-03T08:41:24.019Z,25.48
2022-08-03T08:44:01.842Z,25.40
2022-08-03T08:46:33.193Z,25.16
2022-08-03T08:49:04.880Z,24.94
2022-08-03T08:51:54.443Z,24.87
2022-08-03T08:54:27.231Z,24.87
2022-08-03T08:57:02.062Z,24.92
2022-08-03T08:59:48.189Z,24.99
2022-08-03T09:02:20.676Z,25.15
2022-08-03T09:04:49.635Z,25.32
2022-08-03T09:07:20.423Z,25.64
2022-08-03T09:10:12.313Z,25.89
2022-08-03T09:12:47.681Z,25.99
2022-08-03T09:15:22.052Z,26.09
2022-08-03T09:17:52.914Z,26.18
2022-08-03T09:20:23.391Z,26.25
2022-08-03T09:22:59.878Z,26.36
2022-08-03T09:25:37.584Z,26.41
2022-08-03T09:28:07.395Z,26.48
2022-08-03T09:30:37.084Z,26.52
2022-08-03T09:33:08.383Z,26.46
2022-08-03T09:35:57.812Z,26.46
2022-08-03T09:38:27.703Z,26.55
2022-08-03T09:40:59.988Z,26.60
2022-08-03T09:43:45.856Z,26.72
2022-08-03T09:46:14.114Z,26.78
2022-08-03T09:48:42.341Z,26.90
2022-08-03T09:52:17.965Z,26.90
2022-08-03T09:54:05.771Z,26.93
2022-08-03T09:56:44.869Z,27.01
2022-08-03T09:59:23.411Z,27.08
2022-08-03T10:01:52.715Z,27.28
2022-08-03T10:04:22.332Z,27.50
2022-08-03T10:07:09.358Z,27.66
2022-08-03T10:09:38.503Z,27.68
2022-08-03T10:12:11.538Z,27.71
2022-08-03T10:14:45.898Z,27.85
2022-08-03T10:17:14.574Z,27.89
2022-08-03T10:19:43.329Z,27.85
2022-08-03T10:22:19.701Z,27.86
2022-08-03T10:24:59.697Z,27.83
2022-08-03T10:27:34.294Z,27.81
2022-08-03T10:30:06.193Z,27.70
2022-08-03T10:32:43.290Z,27.64
2022-08-03T10:35:20.216Z,27.57
2022-08-03T10:37:56.673Z,27.52
2022-08-03T10:43:26.403Z,27.45
2022-08-03T10:45:56.843Z,27.48
2022-08-03T10:48:25.504Z,27.56
2022-08-03T10:50:54.186Z,27.66
2022-08-03T10:53:54.270Z,27.75
2022-08-03T10:56:54.346Z,27.56
2022-08-03T10:59:41.488Z,27.28
2022-08-03T11:02:10.338Z,27.09
2022-08-03T11:04:38.634Z,27.14
2022-08-03T11:07:23.923Z,27.21
2022-08-03T11:09:56.706Z,27.31
2022-08-03T11:12:32.982Z,27.43
2022-08-03T11:15:07.775Z,27.52
2022-08-03T11:17:46.449Z,27.56
2022-08-03T11:20:54.342Z,27.50
2022-08-03T11:24:02.418Z,27.51
2022-08-03T11:26:31.937Z,27.55
2022-08-03T11:29:29.422Z,27.65
2022-08-03T11:31:58.132Z,27.70
2022-08-03T11:34:26.753Z,27.92
2022-08-03T11:37:27.273Z,28.14
2022-08-03T11:39:58.953Z,28.08
2022-08-03T11:42:29.460Z,27.92
2022-08-03T11:45:00.440Z,27.75
2022-08-03T11:47:30.635Z,27.66
2022-08-03T11:50:02.443Z,27.64
2022-08-03T11:52:39.679Z,27.53
2022-08-03T11:55:12.637Z,27.33
2022-08-03T11:58:58.270Z,27.26
2022-08-03T12:00:32.081Z,27.51
2022-08-03T12:03:07.697Z,27.74
2022-08-03T12:05:51.827Z,27.96
2022-08-03T12:08:26.750Z,28.15
2022-08-03T12:10:56.839Z,28.31
2022-08-03T12:14:43.925Z,28.37
2022-08-03T12:16:20.939Z,28.23
2022-08-03T12:19:05.007Z,28.24
2022-08-03T12:21:33.479Z,28.26
2022-08-03T12:24:05.550Z,28.35
2022-08-03T12:26:56.807Z,28.42
2022-08-03T12:29:29.258Z,28.57
2022-08-03T12:31:57.648Z,28.74
2022-08-03T12:34:47.394Z,28.97
2022-08-03T12:37:22.657Z,29.11
2022-08-03T12:40:07.740Z,29.27
2022-08-03T12:42:41.127Z,29.38
2022-08-03T12:45:23.302Z,29.41
2022-08-03T12:47:53.224Z,29.46
2022-08-03T12:50:26.107Z,29.51
2022-08-03T12:52:55.060Z,29.41
2022-08-03T12:55:24.096Z,29.45
2022-08-03T12:57:52.326Z,29.52
2022-08-03T13:00:28.889Z,29.51
2022-08-03T13:05:57.606Z,29.61
2022-08-03T13:08:26.184Z,29.69
2022-08-03T13:10:54.474Z,29.79
2022-08-03T13:13:41.277Z,29.82
2022-08-03T13:16:09.552Z,29.92
2022-08-03T13:18:38.328Z,30.06
2022-08-03T13:21:09.410Z,30.04
2022-08-03T13:23:37.682Z,29.80
2022-08-03T13:26:06.184Z,29.80
2022-08-03T13:28:34.519Z,29.89
2022-08-03T13:31:02.871Z,30.02
2022-08-03T13:33:31.805Z,30.05
2022-08-03T13:36:00.424Z,30.02
2022-08-03T13:38:31.594Z,30.08
2022-08-03T13:41:02.436Z,30.11
2022-08-03T13:43:33.286Z,30.21
2022-08-03T13:46:01.593Z,30.35
2022-08-03T13:48:35.908Z,30.49
2022-08-03T13:51:22.216Z,30.54
2022-08-03T13:53:52.530Z,30.46
2022-08-03T13:56:20.820Z,30.31
2022-08-03T13:58:49.190Z,30.07
2022-08-03T14:01:29.736Z,30.10
2022-08-03T14:04:06.036Z,30.32
2022-08-03T14:06:46.035Z,30.49
2022-08-03T14:09:14.892Z,30.55
2022-08-03T14:12:05.231Z,30.56
2022-08-03T14:14:33.267Z,30.46
2022-08-03T14:17:01.774Z,30.22
2022-08-03T14:19:30.699Z,30.22
2022-08-03T14:22:06.263Z,30.31
2022-08-03T14:24:35.333Z,30.22
2022-08-03T14:27:09.030Z,30.14
2022-08-03T14:29:37.872Z,30.16
2022-08-03T14:32:11.664Z,30.27
2022-08-03T14:34:41.699Z,30.21
2022-08-03T14:37:12.051Z,30.24
2022-08-03T14:42:29.054Z,30.23
2022-08-03T14:45:02.455Z,30.17
2022-08-03T14:47:34.028Z,29.93
2022-08-03T14:50:37.226Z,29.87
2022-08-03T14:53:09.438Z,29.91
2022-08-03T14:55:38.933Z,29.90
2022-08-03T14:58:20.794Z,30.00
2022-08-03T15:00:52.101Z,30.12
2022-08-03T15:03:24.045Z,30.24
2022-08-03T15:05:56.938Z,30.34
2022-08-03T15:08:26.600Z,30.33
2022-08-03T15:10:55.180Z,30.28
2022-08-03T15:13:23.648Z,30.30
2022-08-03T15:15:52.280Z,30.28
2022-08-03T15:18:20.584Z,30.16
2022-08-03T15:20:50.584Z,29.97
2022-08-03T15:23:19.813Z,29.88
2022-08-03T15:26:03.956Z,29.81
2022-08-03T15:28:37.467Z,29.76
2022-08-03T15:31:06.970Z,29.69
2022-08-03T15:33:35.506Z,29.62
2022-08-03T15:36:04.925Z,29.55
2022-08-03T15:38:33.142Z,29.46
2022-08-03T15:41:03.523Z,29.37
2022-08-03T15:43:32.418Z,29.26
2022-08-03T15:46:30.088Z,29.08
2022-08-03T15:48:49.246Z,28.92
2022-08-03T15:51:17.593Z,28.81
2022-08-03T15:53:45.824Z,28.73
2022-08-03T15:56:18.445Z,28.66
2022-08-03T15:59:10.193Z,28.54
2022-08-03T16:01:39.062Z,28.41
2022-08-03T16:04:07.442Z,28.28
2022-08-03T16:06:36.592Z,28.20
2022-08-03T16:09:23.699Z,28.13
2022-08-03T16:11:55.779Z,28.07
2022-08-03T16:14:32.145Z,27.99
2022-08-03T16:17:01.773Z,27.91
2022-08-03T16:19:30.545Z,27.85
2022-08-03T16:21:58.827Z,27.78
2022-08-03T16:24:28.516Z,27.70
2022-08-03T16:26:57.294Z,27.61
2022-08-03T16:29:25.572Z,27.50
2022-08-03T16:31:53.788Z,27.37
2022-08-03T16:34:22.453Z,27.27
2022-08-03T16:36:51.349Z,27.17
2022-08-03T16:39:19.735Z,27.05
2022-08-03T16:42:00.259Z,26.95
2022-08-03T16:44:31.293Z,26.84
2022-08-03T16:47:02.334Z,26.73
2022-08-03T16:49:53.662Z,26.61
2022-08-03T16:52:20.533Z,26.51
2022-08-03T16:54:53.608Z,26.41
2022-08-03T16:57:59.582Z,26.32
2022-08-03T17:00:33.688Z,26.20
2022-08-03T17:03:19.074Z,26.09
2022-08-03T17:05:50.223Z,25.98
2022-08-03T17:08:26.764Z,25.88
2022-08-03T17:10:56.388Z,25.77
2022-08-03T17:13:39.495Z,25.68
2022-08-03T17:16:10.619Z,25.59
2022-08-03T17:19:02.071Z,25.50
2022-08-03T17:21:32.466Z,25.42
2022-08-03T17:24:12.415Z,25.32
2022-08-03T17:26:43.639Z,25.23
2022-08-03T17:29:17.187Z,25.13
2022-08-03T17:31:49.391Z,25.05
2022-08-03T17:34:19.624Z,24.97
2022-08-03T17:37:05.799Z,24.89
2022-08-03T17:42:29.363Z,24.69
2022-08-03T17:45:02.491Z,24.58
2022-08-03T17:50:21.132Z,24.42
2022-08-03T17:53:07.263Z,24.37
2022-08-03T17:55:57.429Z,24.29
2022-08-03T17:58:43.673Z,24.20
2022-08-03T18:02:03.175Z,24.12
2022-08-03T18:04:29.782Z,24.03
2022-08-03T18:07:00.727Z,23.97
2022-08-03T18:10:05.102Z,23.88
2022-08-03T18:13:01.985Z,23.76
2022-08-03T18:15:50.407Z,23.63
2022-08-03T18:18:32.211Z,23.54
2022-08-03T18:21:04.553Z,23.47
2022-08-03T18:23:37.683Z,23.36
2022-08-03T18:26:11.828Z,23.23
2022-08-03T18:28:41.352Z,23.06
2022-08-03T18:31:12.742Z,23.00
2022-08-03T18:34:18.573Z,22.94
2022-08-03T18:36:52.793Z,22.88
2022-08-03T18:39:26.082Z,22.79
2022-08-03T18:41:54.694Z,22.70
2022-08-03T18:44:52.834Z,22.59
2022-08-03T18:47:51.692Z,22.52
2022-08-03T18:50:33.241Z,22.44
2022-08-03T18:53:20.024Z,22.34
2022-08-03T18:56:18.631Z,22.20
2022-08-03T18:58:52.504Z,22.10
2022-08-03T19:02:00.250Z,22.03
2022-08-03T19:04:35.569Z,21.94
2022-08-03T19:07:08.542Z,21.87
2022-08-03T19:09:45.858Z,21.82
2022-08-03T19:12:30.726Z,21.77
2022-08-03T19:15:10.627Z,21.71
2022-08-03T19:17:50.242Z,21.63
2022-08-03T19:20:26.786Z,21.58
2022-08-03T19:22:58.551Z,21.54
2022-08-03T19:25:34.356Z,21.44
2022-08-03T19:28:06.293Z,21.32
2022-08-03T19:30:39.116Z,21.26
2022-08-03T19:33:10.732Z,21.23
2022-08-03T19:35:51.610Z,21.19
2022-08-03T19:38:28.348Z,21.16
2022-08-03T19:41:02.146Z,21.14
2022-08-03T19:43:53.390Z,21.10
2022-08-03T19:46:30.276Z,21.04
2022-08-03T19:52:02.618Z,20.96
2022-08-03T19:54:53.250Z,20.94
2022-08-03T19:57:25.469Z,20.89
2022-08-03T19:59:58.856Z,20.86
2022-08-03T20:02:33.869Z,20.84
2022-08-03T20:05:02.372Z,20.83
2022-08-03T20:07:32.992Z,20.79
2022-08-03T20:10:04.941Z,20.74
2022-08-03T20:12:39.048Z,20.70
2022-08-03T20:15:09.385Z,20.67
2022-08-03T20:17:57.006Z,20.63
2022-08-03T20:20:31.093Z,20.57
2022-08-03T20:23:01.213Z,20.46
2022-08-03T20:25:38.349Z,20.41
2022-08-03T20:28:13.443Z,20.32
2022-08-03T20:30:47.723Z,20.26
2022-08-03T20:33:18.673Z,20.18
2022-08-03T20:35:51.303Z,20.14
2022-08-03T20:38:20.026Z,20.15
2022-08-03T20:40:56.601Z,20.14
2022-08-03T20:43:27.540Z,20.10
2022-08-03T20:46:01.244Z,20.06
2022-08-03T20:48:48.702Z,20.00
2022-08-03T20:51:19.626Z,19.93
2022-08-03T20:53:59.759Z,19.88
2022-08-03T20:56:37.065Z,19.85
2022-08-03T20:59:14.918Z,19.82
2022-08-03T21:01:44.406Z,19.79
2022-08-03T21:04:13.476Z,19.76
2022-08-03T21:06:52.995Z,19.72
2022-08-03T21:09:39.875Z,19.67
2022-08-03T21:12:18.193Z,19.64
2022-08-03T21:12:55.172Z,24.48
2022-08-03T21:13:12.958Z,21.00
2022-08-03T21:15:02.438Z,19.69
2022-08-03T21:17:40.887Z,19.73
2022-08-03T21:20:12.644Z,19.76
2022-08-03T21:22:45.936Z,19.79
2022-08-03T21:25:16.412Z,19.82
2022-08-03T21:27:45.267Z,19.86
2022-08-03T21:30:15.485Z,19.88
2022-08-03T21:32:46.400Z,19.88
2022-08-03T21:35:17.354Z,19.90
2022-08-03T21:37:47.127Z,19.90
2022-08-03T21:40:17.263Z,19.90
2022-08-03T21:42:45.752Z,19.90
2022-08-03T21:45:17.432Z,19.92
2022-08-03T21:47:47.542Z,19.94
2022-08-03T21:50:16.935Z,19.96
2022-08-03T21:52:48.033Z,19.97
2022-08-03T21:55:18.364Z,20.00
2022-08-03T21:58:00.674Z,20.01
2022-08-03T22:00:29.188Z,19.99
2022-08-03T22:03:15.401Z,19.99
2022-08-03T22:05:46.629Z,20.00
2022-08-03T22:08:17.186Z,19.99
2022-08-03T22:10:46.713Z,20.00
2022-08-03T22:13:42.987Z,20.00
2022-08-03T22:16:09.415Z,20.00
2022-08-03T22:18:40.809Z,19.99
2022-08-03T22:21:15.372Z,19.98
2022-08-03T22:23:51.912Z,19.98
2022-08-03T22:26:34.816Z,19.95
2022-08-03T22:29:08.195Z,19.93
2022-08-03T22:31:58.897Z,19.92
2022-08-03T22:34:28.780Z,19.90
2022-08-03T22:37:02.442Z,19.87
2022-08-03T22:39:31.494Z,19.87
2022-08-03T22:42:00.264Z,19.84
2022-08-03T22:44:29.712Z,19.81
2022-08-03T22:46:58.761Z,19.77
2022-08-03T22:49:28.592Z,19.74
2022-08-03T22:51:58.341Z,19.71
2022-08-03T22:54:28.150Z,19.68
2022-08-03T22:56:58.089Z,19.61
2022-08-03T22:59:39.208Z,19.55
2022-08-03T23:02:21.174Z,19.51
2022-08-03T23:04:53.576Z,19.48
2022-08-03T23:07:30.055Z,19.47
2022-08-03T23:10:03.156Z,19.42
2022-08-03T23:12:35.885Z,19.36
2022-08-03T23:15:09.014Z,19.29
2022-08-03T23:17:58.013Z,19.23
2022-08-03T23:20:28.902Z,19.15
2022-08-03T23:23:03.177Z,19.08
2022-08-03T23:25:34.511Z,18.97
2022-08-03T23:28:05.642Z,18.91
2022-08-03T23:30:37.418Z,18.85
2022-08-03T23:33:08.513Z,18.81
2022-08-03T23:36:28.468Z,18.79
2022-08-03T23:38:46.414Z,18.78
2022-08-03T23:41:16.720Z,18.80
2022-08-03T23:43:52.293Z,18.82
2022-08-03T23:46:23.880Z,18.83
2022-08-03T23:48:56.513Z,18.84
2022-08-03T23:51:37.220Z,18.84
2022-08-03T23:54:24.196Z,18.86
2022-08-03T23:57:21.947Z,18.86
